sensor_id;sensor_type;location;lat;lon;timestamp;temperature;humidity
66422;DHT22;53228;51.380;0.098;2023-12-04T00:00:52;3.00;99.90
66422;DHT22;53228;51.380;0.098;2023-12-04T00:03:20;3.00;99.90
66422;DHT22;53228;51.380;0.098;2023-12-04T00:05:47;3.00;99.90
66422;DHT22;53228;51.380;0.098;2023-12-04T00:08:15;3.00;99.90
66422;DHT22;53228;51.380;0.098;2023-12-04T00:10:43;3.00;99.90
66422;DHT22;53228;51.380;0.098;2023-12-04T00:13:10;3.00;99.90
66422;DHT22;53228;51.380;0.098;2023-12-04T00:15:38;2.90;99.90
66422;DHT22;53228;51.380;0.098;2023-12-04T00:18:06;2.90;99.90
66422;DHT22;53228;51.380;0.098;2023-12-04T00:20:33;2.90;99.90
66422;DHT22;53228;51.380;0.098;2023-12-04T00:23:01;2.90;99.90
66422;DHT22;53228;51.380;0.098;2023-12-04T00:25:29;3.00;99.90
66422;DHT22;53228;51.380;0.098;2023-12-04T00:27:56;2.90;99.90
66422;DHT22;53228;51.380;0.098;2023-12-04T00:30:24;2.90;99.90
66422;DHT22;53228;51.380;0.098;2023-12-04T00:32:52;3.00;99.90
66422;DHT22;53228;51.380;0.098;2023-12-04T00:35:20;3.00;99.90
66422;DHT22;53228;51.380;0.098;2023-12-04T00:37:48;2.90;99.90
66422;DHT22;53228;51.380;0.098;2023-12-04T00:40:15;2.90;99.90
66422;DHT22;53228;51.380;0.098;2023-12-04T00:42:43;2.90;99.90
66422;DHT22;53228;51.380;0.098;2023-12-04T00:45:11;2.90;99.90
66422;DHT22;53228;51.380;0.098;2023-12-04T00:47:38;2.90;99.90
66422;DHT22;53228;51.380;0.098;2023-12-04T00:50:06;2.90;99.90
66422;DHT22;53228;51.380;0.098;2023-12-04T00:52:34;3.10;99.90
66422;DHT22;53228;51.380;0.098;2023-12-04T00:55:02;3.00;99.90
66422;DHT22;53228;51.380;0.098;2023-12-04T00:57:29;2.90;99.90
66422;DHT22;53228;51.380;0.098;2023-12-04T00:59:57;2.90;99.90
66422;DHT22;53228;51.380;0.098;2023-12-04T01:02:25;3.00;99.90
66422;DHT22;53228;51.380;0.098;2023-12-04T01:04:53;3.00;99.90
66422;DHT22;53228;51.380;0.098;2023-12-04T01:07:20;3.00;99.90
66422;DHT22;53228;51.380;0.098;2023-12-04T01:09:48;3.00;99.90
66422;DHT22;53228;51.380;0.098;2023-12-04T01:12:15;3.00;99.90
66422;DHT22;53228;51.380;0.098;2023-12-04T01:14:43;2.90;99.90
66422;DHT22;53228;51.380;0.098;2023-12-04T01:17:11;2.90;99.90
66422;DHT22;53228;51.380;0.098;2023-12-04T01:19:39;3.00;99.90
66422;DHT22;53228;51.380;0.098;2023-12-04T01:22:07;3.00;99.90
66422;DHT22;53228;51.380;0.098;2023-12-04T01:24:34;3.00;99.90
66422;DHT22;53228;51.380;0.098;2023-12-04T01:27:02;3.00;99.90
66422;DHT22;53228;51.380;0.098;2023-12-04T01:29:30;3.00;99.90
66422;DHT22;53228;51.380;0.098;2023-12-04T01:31:59;3.00;99.90
66422;DHT22;53228;51.380;0.098;2023-12-04T01:34:27;3.00;99.90
66422;DHT22;53228;51.380;0.098;2023-12-04T01:36:54;3.00;99.90
66422;DHT22;53228;51.380;0.098;2023-12-04T01:39:22;3.00;99.90
66422;DHT22;53228;51.380;0.098;2023-12-04T01:41:50;3.00;99.90
66422;DHT22;53228;51.380;0.098;2023-12-04T01:44:17;3.00;99.90
66422;DHT22;53228;51.380;0.098;2023-12-04T01:46:45;3.00;99.90
66422;DHT22;53228;51.380;0.098;2023-12-04T01:49:13;3.00;99.90
66422;DHT22;53228;51.380;0.098;2023-12-04T01:51:42;3.00;99.90
66422;DHT22;53228;51.380;0.098;2023-12-04T01:54:10;3.00;99.90
66422;DHT22;53228;51.380;0.098;2023-12-04T01:56:38;3.00;99.90
66422;DHT22;53228;51.380;0.098;2023-12-04T01:59:06;3.10;99.90
66422;DHT22;53228;51.380;0.098;2023-12-04T02:01:34;3.10;99.90
66422;DHT22;53228;51.380;0.098;2023-12-04T02:04:03;3.10;99.90
66422;DHT22;53228;51.380;0.098;2023-12-04T02:06:31;3.10;99.90
66422;DHT22;53228;51.380;0.098;2023-12-04T02:08:59;3.10;99.90
66422;DHT22;53228;51.380;0.098;2023-12-04T02:11:28;3.10;99.90
66422;DHT22;53228;51.380;0.098;2023-12-04T02:13:56;3.10;99.90
66422;DHT22;53228;51.380;0.098;2023-12-04T02:16:25;3.10;99.90
66422;DHT22;53228;51.380;0.098;2023-12-04T02:18:54;3.10;99.90
66422;DHT22;53228;51.380;0.098;2023-12-04T02:21:22;3.10;99.90
66422;DHT22;53228;51.380;0.098;2023-12-04T02:23:51;3.10;99.90
66422;DHT22;53228;51.380;0.098;2023-12-04T02:26:24;3.10;99.90
66422;DHT22;53228;51.380;0.098;2023-12-04T02:29:00;3.10;99.90
66422;DHT22;53228;51.380;0.098;2023-12-04T02:31:29;3.10;99.90
66422;DHT22;53228;51.380;0.098;2023-12-04T02:33:59;3.20;99.90
66422;DHT22;53228;51.380;0.098;2023-12-04T02:36:29;3.20;99.90
66422;DHT22;53228;51.380;0.098;2023-12-04T02:38:58;3.20;99.90
66422;DHT22;53228;51.380;0.098;2023-12-04T02:41:27;3.20;99.90
66422;DHT22;53228;51.380;0.098;2023-12-04T02:43:55;3.20;99.90
66422;DHT22;53228;51.380;0.098;2023-12-04T02:46:22;2.80;99.90
66422;DHT22;53228;51.380;0.098;2023-12-04T02:48:50;3.20;99.90
66422;DHT22;53228;51.380;0.098;2023-12-04T02:51:18;3.50;99.90
66422;DHT22;53228;51.380;0.098;2023-12-04T02:53:46;3.20;99.90
66422;DHT22;53228;51.380;0.098;2023-12-04T02:56:13;3.20;99.90
66422;DHT22;53228;51.380;0.098;2023-12-04T02:58:41;3.20;99.90
66422;DHT22;53228;51.380;0.098;2023-12-04T03:01:09;3.20;99.90
66422;DHT22;53228;51.380;0.098;2023-12-04T03:03:36;3.20;99.90
66422;DHT22;53228;51.380;0.098;2023-12-04T03:06:04;3.20;99.90
66422;DHT22;53228;51.380;0.098;2023-12-04T03:08:33;3.20;99.90
66422;DHT22;53228;51.380;0.098;2023-12-04T03:11:01;3.20;99.90
66422;DHT22;53228;51.380;0.098;2023-12-04T03:13:31;3.20;99.90
66422;DHT22;53228;51.380;0.098;2023-12-04T03:16:00;3.20;99.90
66422;DHT22;53228;51.380;0.098;2023-12-04T03:18:28;3.30;99.90
66422;DHT22;53228;51.380;0.098;2023-12-04T03:20:56;3.20;99.90
66422;DHT22;53228;51.380;0.098;2023-12-04T03:23:24;3.20;99.90
66422;DHT22;53228;51.380;0.098;2023-12-04T03:25:51;3.20;99.90
66422;DHT22;53228;51.380;0.098;2023-12-04T03:28:19;3.20;99.90
66422;DHT22;53228;51.380;0.098;2023-12-04T03:30:47;3.30;99.90
66422;DHT22;53228;51.380;0.098;2023-12-04T03:33:14;3.20;99.90
66422;DHT22;53228;51.380;0.098;2023-12-04T03:35:42;3.20;99.90
66422;DHT22;53228;51.380;0.098;2023-12-04T03:38:10;3.20;99.90
66422;DHT22;53228;51.380;0.098;2023-12-04T03:40:38;3.20;99.90
66422;DHT22;53228;51.380;0.098;2023-12-04T03:43:06;3.20;99.90
66422;DHT22;53228;51.380;0.098;2023-12-04T03:45:33;3.20;99.90
66422;DHT22;53228;51.380;0.098;2023-12-04T03:48:01;3.20;99.90
66422;DHT22;53228;51.380;0.098;2023-12-04T03:50:29;3.20;99.90
66422;DHT22;53228;51.380;0.098;2023-12-04T03:52:56;3.20;99.90
66422;DHT22;53228;51.380;0.098;2023-12-04T03:55:24;3.20;99.90
66422;DHT22;53228;51.380;0.098;2023-12-04T03:57:53;3.20;99.90
66422;DHT22;53228;51.380;0.098;2023-12-04T04:00:21;3.20;99.90
66422;DHT22;53228;51.380;0.098;2023-12-04T04:02:49;3.20;99.90
66422;DHT22;53228;51.380;0.098;2023-12-04T04:05:16;3.20;99.90
66422;DHT22;53228;51.380;0.098;2023-12-04T04:07:44;3.20;99.90
66422;DHT22;53228;51.380;0.098;2023-12-04T04:10:12;3.20;99.90
66422;DHT22;53228;51.380;0.098;2023-12-04T04:12:40;3.20;99.90
66422;DHT22;53228;51.380;0.098;2023-12-04T04:15:08;3.20;99.90
66422;DHT22;53228;51.380;0.098;2023-12-04T04:17:36;3.30;99.90
66422;DHT22;53228;51.380;0.098;2023-12-04T04:20:05;3.20;99.90
66422;DHT22;53228;51.380;0.098;2023-12-04T04:22:32;3.30;99.90
66422;DHT22;53228;51.380;0.098;2023-12-04T04:25:06;3.30;99.90
66422;DHT22;53228;51.380;0.098;2023-12-04T04:27:34;3.40;99.90
66422;DHT22;53228;51.380;0.098;2023-12-04T04:30:02;3.40;99.90
66422;DHT22;53228;51.380;0.098;2023-12-04T04:32:31;3.40;99.90
66422;DHT22;53228;51.380;0.098;2023-12-04T04:34:59;3.40;99.90
66422;DHT22;53228;51.380;0.098;2023-12-04T04:37:27;3.40;99.90
66422;DHT22;53228;51.380;0.098;2023-12-04T04:39:55;3.50;99.90
66422;DHT22;53228;51.380;0.098;2023-12-04T04:42:23;3.50;99.90
66422;DHT22;53228;51.380;0.098;2023-12-04T04:44:50;3.70;99.90
66422;DHT22;53228;51.380;0.098;2023-12-04T04:47:18;3.50;99.90
66422;DHT22;53228;51.380;0.098;2023-12-04T04:49:46;3.50;99.90
66422;DHT22;53228;51.380;0.098;2023-12-04T04:52:13;3.50;99.90
66422;DHT22;53228;51.380;0.098;2023-12-04T04:54:41;3.60;99.90
66422;DHT22;53228;51.380;0.098;2023-12-04T04:57:09;3.60;99.90
66422;DHT22;53228;51.380;0.098;2023-12-04T04:59:36;3.60;99.90
66422;DHT22;53228;51.380;0.098;2023-12-04T05:02:04;3.60;99.90
66422;DHT22;53228;51.380;0.098;2023-12-04T05:04:32;3.60;99.90
66422;DHT22;53228;51.380;0.098;2023-12-04T05:07:00;3.60;99.90
66422;DHT22;53228;51.380;0.098;2023-12-04T05:09:27;3.70;99.90
66422;DHT22;53228;51.380;0.098;2023-12-04T05:11:55;3.70;99.90
66422;DHT22;53228;51.380;0.098;2023-12-04T05:14:22;3.60;99.90
66422;DHT22;53228;51.380;0.098;2023-12-04T05:16:50;3.70;99.90
66422;DHT22;53228;51.380;0.098;2023-12-04T05:19:18;3.80;99.90
66422;DHT22;53228;51.380;0.098;2023-12-04T05:21:46;3.60;99.90
66422;DHT22;53228;51.380;0.098;2023-12-04T05:24:14;3.60;99.90
66422;DHT22;53228;51.380;0.098;2023-12-04T05:26:41;3.60;99.90
66422;DHT22;53228;51.380;0.098;2023-12-04T05:29:09;3.60;99.90
66422;DHT22;53228;51.380;0.098;2023-12-04T05:31:37;3.60;99.90
66422;DHT22;53228;51.380;0.098;2023-12-04T05:34:04;3.60;99.90
66422;DHT22;53228;51.380;0.098;2023-12-04T05:36:32;3.60;99.90
66422;DHT22;53228;51.380;0.098;2023-12-04T05:39:00;3.60;99.90
66422;DHT22;53228;51.380;0.098;2023-12-04T05:41:28;3.50;99.90
66422;DHT22;53228;51.380;0.098;2023-12-04T05:43:56;3.50;99.90
66422;DHT22;53228;51.380;0.098;2023-12-04T05:46:23;3.50;99.90
66422;DHT22;53228;51.380;0.098;2023-12-04T05:48:51;3.50;99.90
66422;DHT22;53228;51.380;0.098;2023-12-04T05:51:19;3.50;99.90
66422;DHT22;53228;51.380;0.098;2023-12-04T05:53:46;3.50;99.90
66422;DHT22;53228;51.380;0.098;2023-12-04T05:56:14;3.50;99.90
66422;DHT22;53228;51.380;0.098;2023-12-04T05:58:42;3.50;99.90
66422;DHT22;53228;51.380;0.098;2023-12-04T06:01:09;3.50;99.90
66422;DHT22;53228;51.380;0.098;2023-12-04T06:03:37;3.50;99.90
66422;DHT22;53228;51.380;0.098;2023-12-04T06:06:05;3.50;99.90
66422;DHT22;53228;51.380;0.098;2023-12-04T06:08:33;3.50;99.90
66422;DHT22;53228;51.380;0.098;2023-12-04T06:11:00;3.50;99.90
66422;DHT22;53228;51.380;0.098;2023-12-04T06:13:28;3.50;99.90
66422;DHT22;53228;51.380;0.098;2023-12-04T06:15:56;3.50;99.90
66422;DHT22;53228;51.380;0.098;2023-12-04T06:18:23;3.40;99.90
66422;DHT22;53228;51.380;0.098;2023-12-04T06:20:55;3.50;99.90
66422;DHT22;53228;51.380;0.098;2023-12-04T06:23:23;3.50;99.90
66422;DHT22;53228;51.380;0.098;2023-12-04T06:25:51;3.40;99.90
66422;DHT22;53228;51.380;0.098;2023-12-04T06:28:19;3.40;99.90
66422;DHT22;53228;51.380;0.098;2023-12-04T06:30:47;3.40;99.90
66422;DHT22;53228;51.380;0.098;2023-12-04T06:33:15;3.40;99.90
66422;DHT22;53228;51.380;0.098;2023-12-04T06:35:45;3.40;99.90
66422;DHT22;53228;51.380;0.098;2023-12-04T06:38:16;3.40;99.90
66422;DHT22;53228;51.380;0.098;2023-12-04T06:40:46;3.40;99.90
66422;DHT22;53228;51.380;0.098;2023-12-04T06:43:14;3.40;99.90
66422;DHT22;53228;51.380;0.098;2023-12-04T06:45:44;3.40;99.90
66422;DHT22;53228;51.380;0.098;2023-12-04T06:48:13;3.40;99.90
66422;DHT22;53228;51.380;0.098;2023-12-04T06:50:42;3.50;99.90
66422;DHT22;53228;51.380;0.098;2023-12-04T06:53:10;3.50;99.90
66422;DHT22;53228;51.380;0.098;2023-12-04T06:55:38;3.50;99.90
66422;DHT22;53228;51.380;0.098;2023-12-04T06:58:05;3.50;99.90
66422;DHT22;53228;51.380;0.098;2023-12-04T07:00:33;3.50;99.90
66422;DHT22;53228;51.380;0.098;2023-12-04T07:03:01;3.50;99.90
66422;DHT22;53228;51.380;0.098;2023-12-04T07:05:28;3.50;99.90
66422;DHT22;53228;51.380;0.098;2023-12-04T07:07:56;3.60;99.90
66422;DHT22;53228;51.380;0.098;2023-12-04T07:10:24;3.60;99.90
66422;DHT22;53228;51.380;0.098;2023-12-04T07:12:52;3.50;99.90
66422;DHT22;53228;51.380;0.098;2023-12-04T07:15:19;3.60;99.90
66422;DHT22;53228;51.380;0.098;2023-12-04T07:17:47;3.60;99.90
66422;DHT22;53228;51.380;0.098;2023-12-04T07:20:15;3.60;99.90
66422;DHT22;53228;51.380;0.098;2023-12-04T07:22:42;3.60;99.90
66422;DHT22;53228;51.380;0.098;2023-12-04T07:25:10;3.60;99.90
66422;DHT22;53228;51.380;0.098;2023-12-04T07:27:38;3.60;99.90
66422;DHT22;53228;51.380;0.098;2023-12-04T07:30:06;3.60;99.90
66422;DHT22;53228;51.380;0.098;2023-12-04T07:32:34;3.60;99.90
66422;DHT22;53228;51.380;0.098;2023-12-04T07:35:04;3.60;99.90
66422;DHT22;53228;51.380;0.098;2023-12-04T07:37:32;3.60;99.90
66422;DHT22;53228;51.380;0.098;2023-12-04T07:39:59;3.60;99.90
66422;DHT22;53228;51.380;0.098;2023-12-04T07:42:29;3.60;99.90
66422;DHT22;53228;51.380;0.098;2023-12-04T07:44:57;3.70;99.90
66422;DHT22;53228;51.380;0.098;2023-12-04T07:47:25;3.70;99.90
66422;DHT22;53228;51.380;0.098;2023-12-04T07:49:53;3.80;99.90
66422;DHT22;53228;51.380;0.098;2023-12-04T07:52:20;3.70;99.90
66422;DHT22;53228;51.380;0.098;2023-12-04T07:54:48;3.70;99.90
66422;DHT22;53228;51.380;0.098;2023-12-04T07:57:16;3.70;99.90
66422;DHT22;53228;51.380;0.098;2023-12-04T07:59:44;3.70;99.90
66422;DHT22;53228;51.380;0.098;2023-12-04T08:02:13;3.70;99.90
66422;DHT22;53228;51.380;0.098;2023-12-04T08:04:41;3.70;99.90
66422;DHT22;53228;51.380;0.098;2023-12-04T08:07:09;3.80;99.90
66422;DHT22;53228;51.380;0.098;2023-12-04T08:09:36;3.80;99.90
66422;DHT22;53228;51.380;0.098;2023-12-04T08:12:04;3.80;99.90
66422;DHT22;53228;51.380;0.098;2023-12-04T08:14:32;3.80;99.90
66422;DHT22;53228;51.380;0.098;2023-12-04T08:17:00;3.80;99.90
66422;DHT22;53228;51.380;0.098;2023-12-04T08:19:28;3.80;99.90
66422;DHT22;53228;51.380;0.098;2023-12-04T08:21:55;3.80;99.90
66422;DHT22;53228;51.380;0.098;2023-12-04T08:24:24;3.80;99.90
66422;DHT22;53228;51.380;0.098;2023-12-04T08:26:52;3.90;99.90
66422;DHT22;53228;51.380;0.098;2023-12-04T08:29:19;3.90;99.90
66422;DHT22;53228;51.380;0.098;2023-12-04T08:31:47;3.80;99.90
66422;DHT22;53228;51.380;0.098;2023-12-04T08:34:14;3.80;99.90
66422;DHT22;53228;51.380;0.098;2023-12-04T08:36:43;3.90;99.90
66422;DHT22;53228;51.380;0.098;2023-12-04T08:39:13;3.90;99.90
66422;DHT22;53228;51.380;0.098;2023-12-04T08:41:44;3.90;99.90
66422;DHT22;53228;51.380;0.098;2023-12-04T08:44:24;3.90;99.90
66422;DHT22;53228;51.380;0.098;2023-12-04T08:46:52;3.90;99.90
66422;DHT22;53228;51.380;0.098;2023-12-04T08:49:20;3.90;99.90
66422;DHT22;53228;51.380;0.098;2023-12-04T08:51:51;3.90;99.90
66422;DHT22;53228;51.380;0.098;2023-12-04T08:54:20;3.90;99.90
66422;DHT22;53228;51.380;0.098;2023-12-04T08:56:47;3.90;99.90
66422;DHT22;53228;51.380;0.098;2023-12-04T08:59:15;3.90;99.90
66422;DHT22;53228;51.380;0.098;2023-12-04T09:01:44;3.90;99.90
66422;DHT22;53228;51.380;0.098;2023-12-04T09:04:12;3.60;99.90
66422;DHT22;53228;51.380;0.098;2023-12-04T09:06:40;3.90;99.90
66422;DHT22;53228;51.380;0.098;2023-12-04T09:09:27;3.90;99.90
66422;DHT22;53228;51.380;0.098;2023-12-04T09:11:55;3.90;99.90
66422;DHT22;53228;51.380;0.098;2023-12-04T09:14:23;4.00;99.90
66422;DHT22;53228;51.380;0.098;2023-12-04T09:16:50;3.90;99.90
66422;DHT22;53228;51.380;0.098;2023-12-04T09:19:18;4.00;99.90
66422;DHT22;53228;51.380;0.098;2023-12-04T09:21:46;4.00;99.90
66422;DHT22;53228;51.380;0.098;2023-12-04T09:24:21;4.00;99.90
66422;DHT22;53228;51.380;0.098;2023-12-04T09:26:49;4.00;99.90
66422;DHT22;53228;51.380;0.098;2023-12-04T09:29:16;4.00;99.90
66422;DHT22;53228;51.380;0.098;2023-12-04T09:31:44;4.00;99.90
66422;DHT22;53228;51.380;0.098;2023-12-04T09:34:12;4.10;99.90
66422;DHT22;53228;51.380;0.098;2023-12-04T09:36:39;4.00;99.90
66422;DHT22;53228;51.380;0.098;2023-12-04T09:39:07;4.10;99.90
66422;DHT22;53228;51.380;0.098;2023-12-04T09:41:35;4.10;99.90
66422;DHT22;53228;51.380;0.098;2023-12-04T09:44:03;4.10;99.90
66422;DHT22;53228;51.380;0.098;2023-12-04T09:46:31;4.10;99.90
66422;DHT22;53228;51.380;0.098;2023-12-04T09:48:59;4.10;99.90
66422;DHT22;53228;51.380;0.098;2023-12-04T09:51:28;4.10;99.90
66422;DHT22;53228;51.380;0.098;2023-12-04T09:53:57;4.20;99.90
66422;DHT22;53228;51.380;0.098;2023-12-04T09:56:26;4.20;99.90
66422;DHT22;53228;51.380;0.098;2023-12-04T09:58:59;4.20;99.90
66422;DHT22;53228;51.380;0.098;2023-12-04T10:01:29;4.30;99.90
66422;DHT22;53228;51.380;0.098;2023-12-04T10:03:59;4.20;99.90
66422;DHT22;53228;51.380;0.098;2023-12-04T10:06:28;4.30;99.90
66422;DHT22;53228;51.380;0.098;2023-12-04T10:08:58;4.30;99.90
66422;DHT22;53228;51.380;0.098;2023-12-04T10:11:26;4.40;99.90
66422;DHT22;53228;51.380;0.098;2023-12-04T10:13:54;4.30;99.90
66422;DHT22;53228;51.380;0.098;2023-12-04T10:16:33;4.40;99.90
66422;DHT22;53228;51.380;0.098;2023-12-04T10:19:21;4.30;99.90
66422;DHT22;53228;51.380;0.098;2023-12-04T10:21:50;4.50;99.90
66422;DHT22;53228;51.380;0.098;2023-12-04T10:24:36;4.40;99.90
66422;DHT22;53228;51.380;0.098;2023-12-04T10:27:06;4.40;99.90
66422;DHT22;53228;51.380;0.098;2023-12-04T10:29:47;4.40;99.90
66422;DHT22;53228;51.380;0.098;2023-12-04T10:32:19;4.40;99.90
66422;DHT22;53228;51.380;0.098;2023-12-04T10:34:50;4.40;99.90
66422;DHT22;53228;51.380;0.098;2023-12-04T10:37:18;4.40;99.90
66422;DHT22;53228;51.380;0.098;2023-12-04T10:39:49;4.40;99.90
66422;DHT22;53228;51.380;0.098;2023-12-04T10:42:24;4.40;99.90
66422;DHT22;53228;51.380;0.098;2023-12-04T10:44:58;4.40;99.90
66422;DHT22;53228;51.380;0.098;2023-12-04T10:47:27;4.40;99.90
66422;DHT22;53228;51.380;0.098;2023-12-04T10:49:55;4.40;99.90
66422;DHT22;53228;51.380;0.098;2023-12-04T10:52:24;4.40;99.90
66422;DHT22;53228;51.380;0.098;2023-12-04T10:54:52;4.40;99.90
66422;DHT22;53228;51.380;0.098;2023-12-04T10:57:26;4.40;99.90
66422;DHT22;53228;51.380;0.098;2023-12-04T11:00:04;4.40;99.90
66422;DHT22;53228;51.380;0.098;2023-12-04T11:02:34;4.40;99.90
66422;DHT22;53228;51.380;0.098;2023-12-04T11:05:08;4.40;99.90
66422;DHT22;53228;51.380;0.098;2023-12-04T11:07:46;4.40;99.90
66422;DHT22;53228;51.380;0.098;2023-12-04T11:10:48;4.40;99.90
66422;DHT22;53228;51.380;0.098;2023-12-04T11:13:22;4.40;99.90
66422;DHT22;53228;51.380;0.098;2023-12-04T11:15:59;4.40;99.90
66422;DHT22;53228;51.380;0.098;2023-12-04T11:18:31;4.40;99.90
66422;DHT22;53228;51.380;0.098;2023-12-04T11:21:06;4.40;99.90
66422;DHT22;53228;51.380;0.098;2023-12-04T11:23:34;4.40;99.90
66422;DHT22;53228;51.380;0.098;2023-12-04T11:26:04;4.40;99.90
66422;DHT22;53228;51.380;0.098;2023-12-04T11:28:34;4.40;99.90
66422;DHT22;53228;51.380;0.098;2023-12-04T11:31:04;4.40;99.90
66422;DHT22;53228;51.380;0.098;2023-12-04T11:33:36;4.40;99.90
66422;DHT22;53228;51.380;0.098;2023-12-04T11:36:11;4.40;99.90
66422;DHT22;53228;51.380;0.098;2023-12-04T11:38:45;4.40;99.90
66422;DHT22;53228;51.380;0.098;2023-12-04T11:41:19;4.40;99.90
66422;DHT22;53228;51.380;0.098;2023-12-04T11:43:54;4.40;99.90
66422;DHT22;53228;51.380;0.098;2023-12-04T11:46:24;4.40;99.90
66422;DHT22;53228;51.380;0.098;2023-12-04T11:49:27;4.40;99.90
66422;DHT22;53228;51.380;0.098;2023-12-04T11:51:45;4.40;99.90
66422;DHT22;53228;51.380;0.098;2023-12-04T11:54:21;4.40;99.90
66422;DHT22;53228;51.380;0.098;2023-12-04T11:59:40;4.40;99.90
66422;DHT22;53228;51.380;0.098;2023-12-04T12:02:08;4.50;99.90
66422;DHT22;53228;51.380;0.098;2023-12-04T12:04:37;4.50;99.90
66422;DHT22;53228;51.380;0.098;2023-12-04T12:07:05;4.40;99.90
66422;DHT22;53228;51.380;0.098;2023-12-04T12:09:34;4.50;99.90
66422;DHT22;53228;51.380;0.098;2023-12-04T12:12:03;4.50;99.90
66422;DHT22;53228;51.380;0.098;2023-12-04T12:14:31;4.50;99.90
66422;DHT22;53228;51.380;0.098;2023-12-04T12:17:00;4.50;99.90
66422;DHT22;53228;51.380;0.098;2023-12-04T12:19:28;4.50;99.90
66422;DHT22;53228;51.380;0.098;2023-12-04T12:21:56;4.50;99.90
66422;DHT22;53228;51.380;0.098;2023-12-04T12:24:24;4.50;99.90
66422;DHT22;53228;51.380;0.098;2023-12-04T12:26:54;4.50;99.90
66422;DHT22;53228;51.380;0.098;2023-12-04T12:29:22;4.60;99.90
66422;DHT22;53228;51.380;0.098;2023-12-04T12:31:50;4.60;99.90
66422;DHT22;53228;51.380;0.098;2023-12-04T12:34:26;4.60;99.90
66422;DHT22;53228;51.380;0.098;2023-12-04T12:36:55;4.60;99.90
66422;DHT22;53228;51.380;0.098;2023-12-04T12:39:28;4.50;99.90
66422;DHT22;53228;51.380;0.098;2023-12-04T12:42:00;4.50;99.90
66422;DHT22;53228;51.380;0.098;2023-12-04T12:44:38;4.60;99.90
66422;DHT22;53228;51.380;0.098;2023-12-04T12:47:08;4.50;99.90
66422;DHT22;53228;51.380;0.098;2023-12-04T12:49:35;4.50;99.90
66422;DHT22;53228;51.380;0.098;2023-12-04T12:52:09;4.60;99.90
66422;DHT22;53228;51.380;0.098;2023-12-04T12:54:42;4.70;99.90
66422;DHT22;53228;51.380;0.098;2023-12-04T12:57:11;4.60;99.90
66422;DHT22;53228;51.380;0.098;2023-12-04T12:59:39;4.60;99.90
66422;DHT22;53228;51.380;0.098;2023-12-04T13:02:07;4.60;99.90
66422;DHT22;53228;51.380;0.098;2023-12-04T13:04:43;4.10;99.90
66422;DHT22;53228;51.380;0.098;2023-12-04T13:07:11;4.60;99.90
66422;DHT22;53228;51.380;0.098;2023-12-04T13:09:39;4.60;99.90
66422;DHT22;53228;51.380;0.098;2023-12-04T13:12:08;4.60;99.90
66422;DHT22;53228;51.380;0.098;2023-12-04T13:14:38;4.60;99.90
66422;DHT22;53228;51.380;0.098;2023-12-04T13:17:06;4.60;99.90
66422;DHT22;53228;51.380;0.098;2023-12-04T13:19:34;4.60;99.90
66422;DHT22;53228;51.380;0.098;2023-12-04T13:22:03;4.60;99.90
66422;DHT22;53228;51.380;0.098;2023-12-04T13:24:32;4.60;99.90
66422;DHT22;53228;51.380;0.098;2023-12-04T13:27:00;4.60;99.90
66422;DHT22;53228;51.380;0.098;2023-12-04T13:29:27;4.60;99.90
66422;DHT22;53228;51.380;0.098;2023-12-04T13:31:55;4.60;99.90
66422;DHT22;53228;51.380;0.098;2023-12-04T13:34:22;4.60;99.90
66422;DHT22;53228;51.380;0.098;2023-12-04T13:36:50;4.60;99.90
66422;DHT22;53228;51.380;0.098;2023-12-04T13:39:18;4.60;99.90
66422;DHT22;53228;51.380;0.098;2023-12-04T13:41:55;4.60;99.90
66422;DHT22;53228;51.380;0.098;2023-12-04T13:44:41;4.60;99.90
66422;DHT22;53228;51.380;0.098;2023-12-04T13:47:09;4.60;99.90
66422;DHT22;53228;51.380;0.098;2023-12-04T13:49:36;5.80;99.90
66422;DHT22;53228;51.380;0.098;2023-12-04T13:52:04;4.70;99.90
66422;DHT22;53228;51.380;0.098;2023-12-04T13:54:35;4.70;99.90
66422;DHT22;53228;51.380;0.098;2023-12-04T13:57:12;4.70;99.90
66422;DHT22;53228;51.380;0.098;2023-12-04T13:59:49;4.70;99.90
66422;DHT22;53228;51.380;0.098;2023-12-04T14:02:17;4.70;99.90
66422;DHT22;53228;51.380;0.098;2023-12-04T14:04:45;4.70;99.90
66422;DHT22;53228;51.380;0.098;2023-12-04T14:07:12;4.70;99.90
66422;DHT22;53228;51.380;0.098;2023-12-04T14:09:41;4.70;99.90
66422;DHT22;53228;51.380;0.098;2023-12-04T14:12:09;4.70;99.90
66422;DHT22;53228;51.380;0.098;2023-12-04T14:14:38;4.70;99.90
66422;DHT22;53228;51.380;0.098;2023-12-04T14:17:05;4.70;99.90
66422;DHT22;53228;51.380;0.098;2023-12-04T14:19:34;4.70;99.90
66422;DHT22;53228;51.380;0.098;2023-12-04T14:22:03;4.70;99.90
66422;DHT22;53228;51.380;0.098;2023-12-04T14:24:30;4.80;99.90
66422;DHT22;53228;51.380;0.098;2023-12-04T14:26:58;4.80;99.90
66422;DHT22;53228;51.380;0.098;2023-12-04T14:29:26;4.70;99.90
66422;DHT22;53228;51.380;0.098;2023-12-04T14:31:53;4.80;99.90
66422;DHT22;53228;51.380;0.098;2023-12-04T14:34:21;4.80;99.90
66422;DHT22;53228;51.380;0.098;2023-12-04T14:36:50;4.80;99.90
66422;DHT22;53228;51.380;0.098;2023-12-04T14:39:17;4.80;99.90
66422;DHT22;53228;51.380;0.098;2023-12-04T14:41:46;4.80;99.90
66422;DHT22;53228;51.380;0.098;2023-12-04T14:44:14;4.80;99.90
66422;DHT22;53228;51.380;0.098;2023-12-04T14:46:41;4.80;99.90
66422;DHT22;53228;51.380;0.098;2023-12-04T14:49:09;4.80;99.90
66422;DHT22;53228;51.380;0.098;2023-12-04T14:51:37;4.80;99.90
66422;DHT22;53228;51.380;0.098;2023-12-04T14:54:05;4.80;99.90
66422;DHT22;53228;51.380;0.098;2023-12-04T14:56:50;5.90;99.90
66422;DHT22;53228;51.380;0.098;2023-12-04T14:59:36;4.80;99.90
66422;DHT22;53228;51.380;0.098;2023-12-04T15:02:16;4.70;99.90
66422;DHT22;53228;51.380;0.098;2023-12-04T15:04:46;4.80;99.90
66422;DHT22;53228;51.380;0.098;2023-12-04T15:07:32;4.80;99.90
66422;DHT22;53228;51.380;0.098;2023-12-04T15:10:06;4.80;99.90
66422;DHT22;53228;51.380;0.098;2023-12-04T15:12:53;4.70;99.90
66422;DHT22;53228;51.380;0.098;2023-12-04T15:15:39;4.70;99.90
66422;DHT22;53228;51.380;0.098;2023-12-04T15:18:06;4.70;99.90
66422;DHT22;53228;51.380;0.098;2023-12-04T15:20:53;4.70;99.90
66422;DHT22;53228;51.380;0.098;2023-12-04T15:23:20;4.70;99.90
66422;DHT22;53228;51.380;0.098;2023-12-04T15:25:48;4.70;99.90
66422;DHT22;53228;51.380;0.098;2023-12-04T15:28:16;4.70;99.90
66422;DHT22;53228;51.380;0.098;2023-12-04T15:30:43;4.70;99.90
66422;DHT22;53228;51.380;0.098;2023-12-04T15:33:14;4.70;99.90
66422;DHT22;53228;51.380;0.098;2023-12-04T15:35:42;4.70;99.90
66422;DHT22;53228;51.380;0.098;2023-12-04T15:38:10;4.70;99.90
66422;DHT22;53228;51.380;0.098;2023-12-04T15:40:37;4.70;99.90
66422;DHT22;53228;51.380;0.098;2023-12-04T15:43:06;4.70;99.90
66422;DHT22;53228;51.380;0.098;2023-12-04T15:45:34;4.70;99.90
66422;DHT22;53228;51.380;0.098;2023-12-04T15:48:02;4.70;99.90
66422;DHT22;53228;51.380;0.098;2023-12-04T15:50:30;4.70;99.90
66422;DHT22;53228;51.380;0.098;2023-12-04T15:52:59;4.60;99.90
66422;DHT22;53228;51.380;0.098;2023-12-04T15:55:27;4.60;99.90
66422;DHT22;53228;51.380;0.098;2023-12-04T15:57:56;4.60;99.90
66422;DHT22;53228;51.380;0.098;2023-12-04T16:00:27;4.60;99.90